sensor_id;sensor_type;location;lat;lon;timestamp;P1;durP1;ratioP1;P2;durP2;ratioP2
10550;SDS011;5324;50.684;3.862;2023-04-03T00:01:03;9.60;;;7.87;;
10550;SDS011;5324;50.684;3.862;2023-04-03T00:03:29;11.60;;;9.20;;
10550;SDS011;5324;50.684;3.862;2023-04-03T00:05:55;16.53;;;10.67;;
10550;SDS011;5324;50.684;3.862;2023-04-03T00:08:21;12.93;;;8.47;;
10550;SDS011;5324;50.684;3.862;2023-04-03T00:10:47;9.20;;;7.20;;
10550;SDS011;5324;50.684;3.862;2023-04-03T00:13:13;8.10;;;6.23;;
10550;SDS011;5324;50.684;3.862;2023-04-03T00:15:39;9.50;;;7.17;;
10550;SDS011;5324;50.684;3.862;2023-04-03T00:18:05;11.23;;;7.30;;
10550;SDS011;5324;50.684;3.862;2023-04-03T00:20:32;7.67;;;6.30;;
10550;SDS011;5324;50.684;3.862;2023-04-03T00:22:58;7.77;;;6.27;;
10550;SDS011;5324;50.684;3.862;2023-04-03T00:25:24;10.07;;;6.73;;
10550;SDS011;5324;50.684;3.862;2023-04-03T00:27:50;9.43;;;6.63;;
10550;SDS011;5324;50.684;3.862;2023-04-03T00:30:17;9.73;;;6.93;;
10550;SDS011;5324;50.684;3.862;2023-04-03T00:32:44;12.13;;;7.13;;
10550;SDS011;5324;50.684;3.862;2023-04-03T00:35:10;8.53;;;6.83;;
10550;SDS011;5324;50.684;3.862;2023-04-03T00:37:36;7.57;;;6.27;;
10550;SDS011;5324;50.684;3.862;2023-04-03T00:40:02;8.93;;;6.63;;
10550;SDS011;5324;50.684;3.862;2023-04-03T00:42:29;7.60;;;6.63;;
10550;SDS011;5324;50.684;3.862;2023-04-03T00:47:21;9.90;;;7.60;;
10550;SDS011;5324;50.684;3.862;2023-04-03T00:49:47;9.53;;;7.50;;
10550;SDS011;5324;50.684;3.862;2023-04-03T00:52:15;9.50;;;7.27;;
10550;SDS011;5324;50.684;3.862;2023-04-03T00:54:42;9.37;;;7.20;;
10550;SDS011;5324;50.684;3.862;2023-04-03T00:57:08;11.77;;;6.80;;
10550;SDS011;5324;50.684;3.862;2023-04-03T00:59:36;9.57;;;7.20;;
10550;SDS011;5324;50.684;3.862;2023-04-03T01:02:03;8.80;;;6.83;;
10550;SDS011;5324;50.684;3.862;2023-04-03T01:04:30;7.23;;;6.50;;
10550;SDS011;5324;50.684;3.862;2023-04-03T01:06:57;8.20;;;6.60;;
10550;SDS011;5324;50.684;3.862;2023-04-03T01:09:26;9.57;;;6.83;;
10550;SDS011;5324;50.684;3.862;2023-04-03T01:11:52;9.67;;;6.30;;
10550;SDS011;5324;50.684;3.862;2023-04-03T01:14:18;8.50;;;6.20;;
10550;SDS011;5324;50.684;3.862;2023-04-03T01:16:52;6.97;;;5.37;;
10550;SDS011;5324;50.684;3.862;2023-04-03T01:19:18;9.63;;;6.17;;
10550;SDS011;5324;50.684;3.862;2023-04-03T01:24:35;9.23;;;6.07;;
10550;SDS011;5324;50.684;3.862;2023-04-03T01:27:04;9.50;;;6.13;;
10550;SDS011;5324;50.684;3.862;2023-04-03T01:29:30;7.63;;;6.20;;
10550;SDS011;5324;50.684;3.862;2023-04-03T01:31:57;6.60;;;5.80;;
10550;SDS011;5324;50.684;3.862;2023-04-03T01:34:24;9.40;;;5.63;;
10550;SDS011;5324;50.684;3.862;2023-04-03T01:36:50;7.80;;;6.10;;
10550;SDS011;5324;50.684;3.862;2023-04-03T01:39:17;7.43;;;5.67;;
10550;SDS011;5324;50.684;3.862;2023-04-03T01:41:43;9.63;;;5.83;;
10550;SDS011;5324;50.684;3.862;2023-04-03T01:44:10;6.73;;;5.63;;
10550;SDS011;5324;50.684;3.862;2023-04-03T01:46:36;8.43;;;5.57;;
10550;SDS011;5324;50.684;3.862;2023-04-03T01:49:02;7.87;;;5.63;;
10550;SDS011;5324;50.684;3.862;2023-04-03T01:51:29;7.20;;;6.10;;
10550;SDS011;5324;50.684;3.862;2023-04-03T01:53:55;9.43;;;6.20;;
10550;SDS011;5324;50.684;3.862;2023-04-03T01:56:21;7.73;;;5.80;;
10550;SDS011;5324;50.684;3.862;2023-04-03T01:58:47;7.20;;;6.10;;
10550;SDS011;5324;50.684;3.862;2023-04-03T02:01:13;7.27;;;6.13;;
10550;SDS011;5324;50.684;3.862;2023-04-03T02:03:40;8.00;;;6.13;;
10550;SDS011;5324;50.684;3.862;2023-04-03T02:06:06;7.63;;;6.03;;
10550;SDS011;5324;50.684;3.862;2023-04-03T02:08:32;7.97;;;6.00;;
10550;SDS011;5324;50.684;3.862;2023-04-03T02:10:58;8.73;;;6.10;;
10550;SDS011;5324;50.684;3.862;2023-04-03T02:13:24;9.93;;;6.27;;
10550;SDS011;5324;50.684;3.862;2023-04-03T02:15:50;6.63;;;5.70;;
10550;SDS011;5324;50.684;3.862;2023-04-03T02:18:16;7.63;;;6.10;;
10550;SDS011;5324;50.684;3.862;2023-04-03T02:20:42;8.87;;;6.47;;
10550;SDS011;5324;50.684;3.862;2023-04-03T02:23:09;7.23;;;5.80;;
10550;SDS011;5324;50.684;3.862;2023-04-03T02:25:35;9.37;;;6.10;;
10550;SDS011;5324;50.684;3.862;2023-04-03T02:28:01;7.40;;;6.23;;
10550;SDS011;5324;50.684;3.862;2023-04-03T02:30:27;8.73;;;5.53;;
10550;SDS011;5324;50.684;3.862;2023-04-03T02:32:53;8.27;;;5.93;;
10550;SDS011;5324;50.684;3.862;2023-04-03T02:35:19;6.60;;;5.17;;
10550;SDS011;5324;50.684;3.862;2023-04-03T02:37:45;7.37;;;5.43;;
10550;SDS011;5324;50.684;3.862;2023-04-03T02:40:11;6.87;;;6.00;;
10550;SDS011;5324;50.684;3.862;2023-04-03T02:42:37;6.80;;;5.00;;
10550;SDS011;5324;50.684;3.862;2023-04-03T02:45:03;6.33;;;5.23;;
10550;SDS011;5324;50.684;3.862;2023-04-03T02:47:29;7.20;;;5.60;;
10550;SDS011;5324;50.684;3.862;2023-04-03T02:49:55;6.00;;;5.33;;
10550;SDS011;5324;50.684;3.862;2023-04-03T02:52:21;6.73;;;5.10;;
10550;SDS011;5324;50.684;3.862;2023-04-03T02:54:47;10.20;;;6.27;;
10550;SDS011;5324;50.684;3.862;2023-04-03T02:57:13;5.80;;;5.30;;
10550;SDS011;5324;50.684;3.862;2023-04-03T02:59:40;7.03;;;5.70;;
10550;SDS011;5324;50.684;3.862;2023-04-03T03:02:08;7.03;;;4.97;;
10550;SDS011;5324;50.684;3.862;2023-04-03T03:04:34;6.70;;;6.03;;
10550;SDS011;5324;50.684;3.862;2023-04-03T03:07:01;12.07;;;5.70;;
10550;SDS011;5324;50.684;3.862;2023-04-03T03:09:27;7.70;;;5.20;;
10550;SDS011;5324;50.684;3.862;2023-04-03T03:11:54;7.40;;;5.30;;
10550;SDS011;5324;50.684;3.862;2023-04-03T03:14:20;6.20;;;5.57;;
10550;SDS011;5324;50.684;3.862;2023-04-03T03:16:46;7.50;;;5.17;;
10550;SDS011;5324;50.684;3.862;2023-04-03T03:19:12;8.30;;;5.17;;
10550;SDS011;5324;50.684;3.862;2023-04-03T03:21:38;6.67;;;5.57;;
10550;SDS011;5324;50.684;3.862;2023-04-03T03:24:04;5.70;;;4.60;;
10550;SDS011;5324;50.684;3.862;2023-04-03T03:26:30;9.10;;;6.03;;
10550;SDS011;5324;50.684;3.862;2023-04-03T03:28:56;11.83;;;6.07;;
10550;SDS011;5324;50.684;3.862;2023-04-03T03:31:22;10.17;;;6.23;;
10550;SDS011;5324;50.684;3.862;2023-04-03T03:33:48;6.93;;;5.80;;
10550;SDS011;5324;50.684;3.862;2023-04-03T03:36:14;7.90;;;5.37;;
10550;SDS011;5324;50.684;3.862;2023-04-03T03:38:40;7.40;;;5.50;;
10550;SDS011;5324;50.684;3.862;2023-04-03T03:41:06;7.90;;;5.63;;
10550;SDS011;5324;50.684;3.862;2023-04-03T03:43:32;7.83;;;5.97;;
10550;SDS011;5324;50.684;3.862;2023-04-03T03:45:58;6.33;;;5.53;;
10550;SDS011;5324;50.684;3.862;2023-04-03T03:48:24;8.87;;;5.57;;
10550;SDS011;5324;50.684;3.862;2023-04-03T03:50:50;7.40;;;6.13;;
10550;SDS011;5324;50.684;3.862;2023-04-03T03:53:16;9.03;;;5.40;;
10550;SDS011;5324;50.684;3.862;2023-04-03T03:55:42;6.37;;;5.53;;
10550;SDS011;5324;50.684;3.862;2023-04-03T03:58:08;9.00;;;5.53;;
10550;SDS011;5324;50.684;3.862;2023-04-03T04:00:35;7.13;;;5.43;;
10550;SDS011;5324;50.684;3.862;2023-04-03T04:03:01;8.20;;;5.57;;
10550;SDS011;5324;50.684;3.862;2023-04-03T04:05:27;5.30;;;4.80;;
10550;SDS011;5324;50.684;3.862;2023-04-03T04:07:53;6.27;;;5.23;;
10550;SDS011;5324;50.684;3.862;2023-04-03T04:10:19;6.07;;;5.47;;
10550;SDS011;5324;50.684;3.862;2023-04-03T04:12:45;7.97;;;5.87;;
10550;SDS011;5324;50.684;3.862;2023-04-03T04:15:11;8.23;;;5.83;;
10550;SDS011;5324;50.684;3.862;2023-04-03T04:17:37;6.67;;;5.87;;
10550;SDS011;5324;50.684;3.862;2023-04-03T04:20:03;6.90;;;5.87;;
10550;SDS011;5324;50.684;3.862;2023-04-03T04:22:30;8.53;;;6.20;;
10550;SDS011;5324;50.684;3.862;2023-04-03T04:24:56;6.93;;;5.50;;
10550;SDS011;5324;50.684;3.862;2023-04-03T04:27:22;7.33;;;5.90;;
10550;SDS011;5324;50.684;3.862;2023-04-03T04:29:49;6.37;;;5.70;;
10550;SDS011;5324;50.684;3.862;2023-04-03T04:32:15;8.80;;;6.23;;
10550;SDS011;5324;50.684;3.862;2023-04-03T04:34:41;7.83;;;4.93;;
10550;SDS011;5324;50.684;3.862;2023-04-03T04:37:07;6.30;;;4.97;;
10550;SDS011;5324;50.684;3.862;2023-04-03T04:39:33;6.30;;;5.50;;
10550;SDS011;5324;50.684;3.862;2023-04-03T04:41:59;6.63;;;5.60;;
10550;SDS011;5324;50.684;3.862;2023-04-03T04:44:25;9.37;;;5.70;;
10550;SDS011;5324;50.684;3.862;2023-04-03T04:46:51;7.10;;;5.27;;
10550;SDS011;5324;50.684;3.862;2023-04-03T04:49:17;5.80;;;5.20;;
10550;SDS011;5324;50.684;3.862;2023-04-03T04:51:43;6.97;;;5.07;;
10550;SDS011;5324;50.684;3.862;2023-04-03T04:54:09;6.10;;;5.40;;
10550;SDS011;5324;50.684;3.862;2023-04-03T04:56:35;6.33;;;5.23;;
10550;SDS011;5324;50.684;3.862;2023-04-03T04:59:01;7.77;;;4.63;;
10550;SDS011;5324;50.684;3.862;2023-04-03T05:01:27;7.60;;;4.97;;
10550;SDS011;5324;50.684;3.862;2023-04-03T05:03:53;5.60;;;4.77;;
10550;SDS011;5324;50.684;3.862;2023-04-03T05:06:19;7.30;;;5.30;;
10550;SDS011;5324;50.684;3.862;2023-04-03T05:08:45;5.93;;;5.20;;
10550;SDS011;5324;50.684;3.862;2023-04-03T05:11:11;6.57;;;4.80;;
10550;SDS011;5324;50.684;3.862;2023-04-03T05:13:37;7.70;;;5.53;;
10550;SDS011;5324;50.684;3.862;2023-04-03T05:16:03;6.33;;;4.93;;
10550;SDS011;5324;50.684;3.862;2023-04-03T05:18:30;8.93;;;6.27;;
10550;SDS011;5324;50.684;3.862;2023-04-03T05:20:55;7.07;;;4.90;;
10550;SDS011;5324;50.684;3.862;2023-04-03T05:23:22;7.47;;;5.63;;
10550;SDS011;5324;50.684;3.862;2023-04-03T05:25:48;6.87;;;5.50;;
10550;SDS011;5324;50.684;3.862;2023-04-03T05:28:15;10.43;;;5.50;;
10550;SDS011;5324;50.684;3.862;2023-04-03T05:30:41;7.60;;;5.73;;
10550;SDS011;5324;50.684;3.862;2023-04-03T05:33:07;9.50;;;5.67;;
10550;SDS011;5324;50.684;3.862;2023-04-03T05:35:33;8.83;;;5.50;;
10550;SDS011;5324;50.684;3.862;2023-04-03T05:38:00;6.77;;;5.93;;
10550;SDS011;5324;50.684;3.862;2023-04-03T05:40:26;9.73;;;6.27;;
10550;SDS011;5324;50.684;3.862;2023-04-03T05:42:53;8.17;;;5.43;;
10550;SDS011;5324;50.684;3.862;2023-04-03T05:45:19;8.87;;;5.67;;
10550;SDS011;5324;50.684;3.862;2023-04-03T05:47:45;6.47;;;5.70;;
10550;SDS011;5324;50.684;3.862;2023-04-03T05:50:12;9.07;;;6.70;;
10550;SDS011;5324;50.684;3.862;2023-04-03T05:52:39;8.73;;;5.93;;
10550;SDS011;5324;50.684;3.862;2023-04-03T05:55:06;6.93;;;5.93;;
10550;SDS011;5324;50.684;3.862;2023-04-03T05:57:32;7.00;;;6.00;;
10550;SDS011;5324;50.684;3.862;2023-04-03T05:59:58;6.30;;;5.50;;
10550;SDS011;5324;50.684;3.862;2023-04-03T06:02:24;6.87;;;5.80;;
10550;SDS011;5324;50.684;3.862;2023-04-03T06:04:51;10.83;;;6.60;;
10550;SDS011;5324;50.684;3.862;2023-04-03T06:07:22;5.87;;;5.20;;
10550;SDS011;5324;50.684;3.862;2023-04-03T06:09:48;7.93;;;6.27;;
10550;SDS011;5324;50.684;3.862;2023-04-03T06:12:15;7.47;;;5.73;;
10550;SDS011;5324;50.684;3.862;2023-04-03T06:14:41;6.53;;;5.63;;
10550;SDS011;5324;50.684;3.862;2023-04-03T06:17:07;9.67;;;5.90;;
10550;SDS011;5324;50.684;3.862;2023-04-03T06:19:34;9.17;;;5.47;;
10550;SDS011;5324;50.684;3.862;2023-04-03T06:22:00;7.50;;;6.00;;
10550;SDS011;5324;50.684;3.862;2023-04-03T06:24:26;7.83;;;6.10;;
10550;SDS011;5324;50.684;3.862;2023-04-03T06:26:52;6.93;;;5.80;;
10550;SDS011;5324;50.684;3.862;2023-04-03T06:29:19;12.20;;;6.50;;
10550;SDS011;5324;50.684;3.862;2023-04-03T06:31:45;8.40;;;6.07;;
10550;SDS011;5324;50.684;3.862;2023-04-03T06:34:12;7.97;;;5.93;;
10550;SDS011;5324;50.684;3.862;2023-04-03T06:36:38;7.07;;;6.37;;
10550;SDS011;5324;50.684;3.862;2023-04-03T06:39:04;7.47;;;5.80;;
10550;SDS011;5324;50.684;3.862;2023-04-03T06:41:30;8.60;;;6.17;;
10550;SDS011;5324;50.684;3.862;2023-04-03T06:43:56;10.03;;;6.37;;
10550;SDS011;5324;50.684;3.862;2023-04-03T06:46:23;8.23;;;6.07;;
10550;SDS011;5324;50.684;3.862;2023-04-03T06:48:50;8.33;;;6.03;;
10550;SDS011;5324;50.684;3.862;2023-04-03T06:51:20;7.07;;;5.77;;
10550;SDS011;5324;50.684;3.862;2023-04-03T06:53:47;6.83;;;5.73;;
10550;SDS011;5324;50.684;3.862;2023-04-03T06:56:13;6.57;;;5.87;;
10550;SDS011;5324;50.684;3.862;2023-04-03T06:58:39;7.77;;;5.50;;
10550;SDS011;5324;50.684;3.862;2023-04-03T07:01:06;6.53;;;5.40;;
10550;SDS011;5324;50.684;3.862;2023-04-03T07:03:32;8.33;;;6.83;;
10550;SDS011;5324;50.684;3.862;2023-04-03T07:05:58;7.97;;;6.13;;
10550;SDS011;5324;50.684;3.862;2023-04-03T07:08:24;8.17;;;6.30;;
10550;SDS011;5324;50.684;3.862;2023-04-03T07:10:51;9.33;;;6.53;;
10550;SDS011;5324;50.684;3.862;2023-04-03T07:13:17;6.80;;;6.10;;
10550;SDS011;5324;50.684;3.862;2023-04-03T07:15:43;7.23;;;6.13;;
10550;SDS011;5324;50.684;3.862;2023-04-03T07:18:09;9.67;;;6.40;;
10550;SDS011;5324;50.684;3.862;2023-04-03T07:20:35;8.80;;;5.77;;
10550;SDS011;5324;50.684;3.862;2023-04-03T07:23:01;8.17;;;5.90;;
10550;SDS011;5324;50.684;3.862;2023-04-03T07:25:27;8.40;;;6.40;;
10550;SDS011;5324;50.684;3.862;2023-04-03T07:27:53;7.00;;;5.87;;
10550;SDS011;5324;50.684;3.862;2023-04-03T07:30:20;8.60;;;6.03;;
10550;SDS011;5324;50.684;3.862;2023-04-03T07:32:46;8.00;;;6.07;;
10550;SDS011;5324;50.684;3.862;2023-04-03T07:35:12;8.70;;;5.60;;
10550;SDS011;5324;50.684;3.862;2023-04-03T07:37:38;6.90;;;6.20;;
10550;SDS011;5324;50.684;3.862;2023-04-03T07:40:05;8.97;;;5.60;;
10550;SDS011;5324;50.684;3.862;2023-04-03T07:42:31;6.03;;;5.43;;
10550;SDS011;5324;50.684;3.862;2023-04-03T07:44:57;10.93;;;6.20;;
10550;SDS011;5324;50.684;3.862;2023-04-03T07:47:23;10.43;;;6.50;;
10550;SDS011;5324;50.684;3.862;2023-04-03T07:49:49;7.30;;;6.20;;
10550;SDS011;5324;50.684;3.862;2023-04-03T07:52:15;8.13;;;6.50;;
10550;SDS011;5324;50.684;3.862;2023-04-03T07:54:41;9.40;;;7.00;;
10550;SDS011;5324;50.684;3.862;2023-04-03T07:57:07;7.13;;;6.10;;
10550;SDS011;5324;50.684;3.862;2023-04-03T07:59:33;8.03;;;6.80;;
10550;SDS011;5324;50.684;3.862;2023-04-03T08:01:59;9.63;;;7.00;;
10550;SDS011;5324;50.684;3.862;2023-04-03T08:04:25;8.20;;;7.33;;
10550;SDS011;5324;50.684;3.862;2023-04-03T08:06:52;7.53;;;6.70;;
10550;SDS011;5324;50.684;3.862;2023-04-03T08:09:18;10.37;;;6.63;;
10550;SDS011;5324;50.684;3.862;2023-04-03T08:11:44;8.57;;;7.40;;
10550;SDS011;5324;50.684;3.862;2023-04-03T08:14:11;10.30;;;7.63;;
10550;SDS011;5324;50.684;3.862;2023-04-03T08:16:41;7.80;;;7.07;;
10550;SDS011;5324;50.684;3.862;2023-04-03T08:19:08;8.23;;;6.93;;
10550;SDS011;5324;50.684;3.862;2023-04-03T08:21:35;9.80;;;7.97;;
10550;SDS011;5324;50.684;3.862;2023-04-03T08:24:01;10.00;;;7.43;;
10550;SDS011;5324;50.684;3.862;2023-04-03T08:26:28;8.17;;;6.50;;
10550;SDS011;5324;50.684;3.862;2023-04-03T08:28:54;10.70;;;6.80;;
10550;SDS011;5324;50.684;3.862;2023-04-03T08:31:20;8.00;;;6.50;;
10550;SDS011;5324;50.684;3.862;2023-04-03T08:33:46;8.43;;;7.50;;
10550;SDS011;5324;50.684;3.862;2023-04-03T08:36:17;9.30;;;7.37;;
10550;SDS011;5324;50.684;3.862;2023-04-03T08:38:44;9.80;;;7.80;;
10550;SDS011;5324;50.684;3.862;2023-04-03T08:49:36;6.90;;;5.30;;
10550;SDS011;5324;50.684;3.862;2023-04-03T08:52:03;6.13;;;5.27;;
10550;SDS011;5324;50.684;3.862;2023-04-03T08:54:32;7.87;;;5.33;;
10550;SDS011;5324;50.684;3.862;2023-04-03T08:56:59;7.23;;;5.70;;
10550;SDS011;5324;50.684;3.862;2023-04-03T08:59:28;7.27;;;5.47;;
10550;SDS011;5324;50.684;3.862;2023-04-03T09:01:55;9.33;;;5.23;;
10550;SDS011;5324;50.684;3.862;2023-04-03T09:04:21;8.63;;;5.13;;
10550;SDS011;5324;50.684;3.862;2023-04-03T09:06:52;8.83;;;5.77;;
10550;SDS011;5324;50.684;3.862;2023-04-03T09:09:30;9.03;;;5.50;;
10550;SDS011;5324;50.684;3.862;2023-04-03T09:22:46;17.60;;;5.20;;
10550;SDS011;5324;50.684;3.862;2023-04-03T09:25:15;5.23;;;4.47;;
10550;SDS011;5324;50.684;3.862;2023-04-03T09:27:42;7.23;;;5.40;;
10550;SDS011;5324;50.684;3.862;2023-04-03T09:30:12;8.37;;;5.27;;
10550;SDS011;5324;50.684;3.862;2023-04-03T09:32:39;7.23;;;5.17;;
10550;SDS011;5324;50.684;3.862;2023-04-03T09:35:26;4.87;;;4.47;;
10550;SDS011;5324;50.684;3.862;2023-04-03T09:37:58;5.80;;;5.13;;
10550;SDS011;5324;50.684;3.862;2023-04-03T09:42:51;4.97;;;4.47;;
10550;SDS011;5324;50.684;3.862;2023-04-03T09:45:26;7.37;;;5.10;;
10550;SDS011;5324;50.684;3.862;2023-04-03T09:50:31;6.50;;;4.73;;
10550;SDS011;5324;50.684;3.862;2023-04-03T09:52:58;5.60;;;4.90;;
10550;SDS011;5324;50.684;3.862;2023-04-03T09:55:25;5.83;;;5.23;;
10550;SDS011;5324;50.684;3.862;2023-04-03T09:57:54;9.37;;;5.30;;
10550;SDS011;5324;50.684;3.862;2023-04-03T10:00:25;5.33;;;4.47;;
10550;SDS011;5324;50.684;3.862;2023-04-03T10:02:55;5.50;;;4.90;;
10550;SDS011;5324;50.684;3.862;2023-04-03T10:08:09;7.33;;;5.37;;
10550;SDS011;5324;50.684;3.862;2023-04-03T10:10:36;5.77;;;5.10;;
10550;SDS011;5324;50.684;3.862;2023-04-03T10:13:18;7.57;;;5.13;;
10550;SDS011;5324;50.684;3.862;2023-04-03T10:16:07;5.50;;;5.00;;
10550;SDS011;5324;50.684;3.862;2023-04-03T10:18:45;7.20;;;5.10;;
10550;SDS011;5324;50.684;3.862;2023-04-03T10:21:19;7.40;;;5.30;;
10550;SDS011;5324;50.684;3.862;2023-04-03T10:32:01;7.20;;;5.03;;
10550;SDS011;5324;50.684;3.862;2023-04-03T10:34:30;6.10;;;4.67;;
10550;SDS011;5324;50.684;3.862;2023-04-03T10:42:13;4.60;;;4.20;;
10550;SDS011;5324;50.684;3.862;2023-04-03T10:47:20;4.00;;;3.40;;
10550;SDS011;5324;50.684;3.862;2023-04-03T10:50:02;4.63;;;3.10;;
10550;SDS011;5324;50.684;3.862;2023-04-03T10:55:37;4.73;;;3.87;;
10550;SDS011;5324;50.684;3.862;2023-04-03T10:58:05;5.07;;;3.77;;
10550;SDS011;5324;50.684;3.862;2023-04-03T11:00:50;3.83;;;3.20;;
10550;SDS011;5324;50.684;3.862;2023-04-03T11:03:27;5.03;;;3.50;;
10550;SDS011;5324;50.684;3.862;2023-04-03T11:05:56;5.63;;;3.77;;
10550;SDS011;5324;50.684;3.862;2023-04-03T11:08:33;3.27;;;2.97;;
10550;SDS011;5324;50.684;3.862;2023-04-03T11:11:08;4.03;;;3.40;;
10550;SDS011;5324;50.684;3.862;2023-04-03T11:13:43;5.30;;;3.23;;
10550;SDS011;5324;50.684;3.862;2023-04-03T11:16:14;5.10;;;2.90;;
10550;SDS011;5324;50.684;3.862;2023-04-03T11:18:43;3.43;;;3.13;;
10550;SDS011;5324;50.684;3.862;2023-04-03T11:21:20;4.77;;;3.20;;
10550;SDS011;5324;50.684;3.862;2023-04-03T11:23:47;3.40;;;2.40;;
10550;SDS011;5324;50.684;3.862;2023-04-03T11:26:15;2.83;;;2.63;;
10550;SDS011;5324;50.684;3.862;2023-04-03T11:28:42;5.10;;;2.77;;
10550;SDS011;5324;50.684;3.862;2023-04-03T11:36:47;3.23;;;2.57;;
10550;SDS011;5324;50.684;3.862;2023-04-03T11:39:32;3.83;;;2.20;;
10550;SDS011;5324;50.684;3.862;2023-04-03T11:44:43;2.43;;;2.20;;
10550;SDS011;5324;50.684;3.862;2023-04-03T11:47:10;2.50;;;2.27;;
10550;SDS011;5324;50.684;3.862;2023-04-03T11:49:50;4.43;;;2.20;;
10550;SDS011;5324;50.684;3.862;2023-04-03T11:55:02;3.30;;;2.60;;
10550;SDS011;5324;50.684;3.862;2023-04-03T11:57:42;4.10;;;2.23;;
10550;SDS011;5324;50.684;3.862;2023-04-03T12:05:56;2.40;;;1.93;;
10550;SDS011;5324;50.684;3.862;2023-04-03T12:08:26;3.60;;;2.33;;
10550;SDS011;5324;50.684;3.862;2023-04-03T12:16:03;4.50;;;2.63;;
10550;SDS011;5324;50.684;3.862;2023-04-03T12:21:14;6.03;;;2.10;;
10550;SDS011;5324;50.684;3.862;2023-04-03T12:29:23;2.87;;;2.20;;
10550;SDS011;5324;50.684;3.862;2023-04-03T12:32:01;4.67;;;2.37;;
10550;SDS011;5324;50.684;3.862;2023-04-03T12:34:38;9.23;;;3.20;;
10550;SDS011;5324;50.684;3.862;2023-04-03T12:47:37;5.10;;;2.10;;
10550;SDS011;5324;50.684;3.862;2023-04-03T12:50:05;2.77;;;2.00;;
10550;SDS011;5324;50.684;3.862;2023-04-03T12:52:42;2.63;;;1.80;;
10550;SDS011;5324;50.684;3.862;2023-04-03T12:55:17;2.30;;;2.10;;
10550;SDS011;5324;50.684;3.862;2023-04-03T12:57:43;4.63;;;1.87;;
10550;SDS011;5324;50.684;3.862;2023-04-03T13:00:27;3.17;;;1.57;;
10550;SDS011;5324;50.684;3.862;2023-04-03T13:02:53;3.60;;;2.20;;
10550;SDS011;5324;50.684;3.862;2023-04-03T13:05:19;4.63;;;1.90;;
10550;SDS011;5324;50.684;3.862;2023-04-03T13:07:50;4.47;;;2.00;;
10550;SDS011;5324;50.684;3.862;2023-04-03T13:10:18;4.20;;;2.63;;
10550;SDS011;5324;50.684;3.862;2023-04-03T13:13:26;3.50;;;2.40;;
10550;SDS011;5324;50.684;3.862;2023-04-03T13:15:44;5.53;;;2.30;;
10550;SDS011;5324;50.684;3.862;2023-04-03T13:20:48;2.53;;;1.90;;
10550;SDS011;5324;50.684;3.862;2023-04-03T13:23:15;2.87;;;2.37;;
10550;SDS011;5324;50.684;3.862;2023-04-03T13:25:43;2.40;;;1.90;;
10550;SDS011;5324;50.684;3.862;2023-04-03T13:28:11;3.33;;;2.27;;
10550;SDS011;5324;50.684;3.862;2023-04-03T13:30:38;3.07;;;1.67;;
10550;SDS011;5324;50.684;3.862;2023-04-03T13:33:05;3.60;;;2.00;;
10550;SDS011;5324;50.684;3.862;2023-04-03T13:35:33;2.87;;;1.93;;
10550;SDS011;5324;50.684;3.862;2023-04-03T13:38:01;2.80;;;2.00;;
10550;SDS011;5324;50.684;3.862;2023-04-03T13:40:27;3.50;;;2.00;;
10550;SDS011;5324;50.684;3.862;2023-04-03T13:43:05;3.13;;;1.90;;
10550;SDS011;5324;50.684;3.862;2023-04-03T13:45:32;3.50;;;2.30;;
10550;SDS011;5324;50.684;3.862;2023-04-03T13:48:09;3.93;;;2.40;;
10550;SDS011;5324;50.684;3.862;2023-04-03T13:50:50;2.00;;;1.73;;
10550;SDS011;5324;50.684;3.862;2023-04-03T13:53:18;2.90;;;1.80;;
10550;SDS011;5324;50.684;3.862;2023-04-03T13:58:24;1.83;;;1.50;;
10550;SDS011;5324;50.684;3.862;2023-04-03T14:03:24;1.93;;;1.60;;
10550;SDS011;5324;50.684;3.862;2023-04-03T14:05:51;3.23;;;2.10;;
10550;SDS011;5324;50.684;3.862;2023-04-03T14:08:18;2.17;;;1.80;;
10550;SDS011;5324;50.684;3.862;2023-04-03T14:10:44;5.27;;;1.77;;
10550;SDS011;5324;50.684;3.862;2023-04-03T14:13:15;2.47;;;1.90;;
10550;SDS011;5324;50.684;3.862;2023-04-03T14:15:42;2.23;;;1.60;;
10550;SDS011;5324;50.684;3.862;2023-04-03T14:18:10;3.53;;;2.37;;
10550;SDS011;5324;50.684;3.862;2023-04-03T14:20:37;2.40;;;1.80;;
10550;SDS011;5324;50.684;3.862;2023-04-03T14:23:03;3.37;;;1.80;;
10550;SDS011;5324;50.684;3.862;2023-04-03T14:25:29;2.33;;;1.60;;
10550;SDS011;5324;50.684;3.862;2023-04-03T14:27:55;1.67;;;1.47;;
10550;SDS011;5324;50.684;3.862;2023-04-03T14:32:47;3.70;;;1.60;;
10550;SDS011;5324;50.684;3.862;2023-04-03T14:35:14;2.33;;;1.90;;
10550;SDS011;5324;50.684;3.862;2023-04-03T14:37:40;1.70;;;1.50;;
10550;SDS011;5324;50.684;3.862;2023-04-03T14:40:07;3.30;;;1.80;;
10550;SDS011;5324;50.684;3.862;2023-04-03T14:42:34;3.57;;;1.53;;
10550;SDS011;5324;50.684;3.862;2023-04-03T14:45:01;2.40;;;1.50;;
10550;SDS011;5324;50.684;3.862;2023-04-03T14:47:28;4.13;;;1.67;;
10550;SDS011;5324;50.684;3.862;2023-04-03T14:49:54;3.70;;;1.43;;
10550;SDS011;5324;50.684;3.862;2023-04-03T14:52:25;2.10;;;1.80;;
10550;SDS011;5324;50.684;3.862;2023-04-03T14:54:52;1.90;;;1.70;;
10550;SDS011;5324;50.684;3.862;2023-04-03T14:57:18;2.20;;;1.60;;
10550;SDS011;5324;50.684;3.862;2023-04-03T14:59:45;2.20;;;1.47;;
10550;SDS011;5324;50.684;3.862;2023-04-03T15:02:33;2.67;;;1.80;;
10550;SDS011;5324;50.684;3.862;2023-04-03T15:05:00;1.83;;;1.50;;
10550;SDS011;5324;50.684;3.862;2023-04-03T15:07:29;2.50;;;1.83;;
10550;SDS011;5324;50.684;3.862;2023-04-03T15:09:55;1.57;;;1.47;;
10550;SDS011;5324;50.684;3.862;2023-04-03T15:12:24;2.60;;;1.60;;
10550;SDS011;5324;50.684;3.862;2023-04-03T15:14:50;6.33;;;1.70;;
10550;SDS011;5324;50.684;3.862;2023-04-03T15:17:20;3.07;;;1.73;;
10550;SDS011;5324;50.684;3.862;2023-04-03T15:19:48;2.50;;;2.10;;
10550;SDS011;5324;50.684;3.862;2023-04-03T15:22:18;2.50;;;2.07;;
10550;SDS011;5324;50.684;3.862;2023-04-03T15:24:44;2.63;;;1.87;;
10550;SDS011;5324;50.684;3.862;2023-04-03T15:27:11;2.97;;;1.60;;
10550;SDS011;5324;50.684;3.862;2023-04-03T15:29:38;2.20;;;1.83;;
10550;SDS011;5324;50.684;3.862;2023-04-03T15:32:04;2.37;;;1.90;;
10550;SDS011;5324;50.684;3.862;2023-04-03T15:34:30;2.40;;;1.83;;
10550;SDS011;5324;50.684;3.862;2023-04-03T15:36:56;3.90;;;1.80;;
10550;SDS011;5324;50.684;3.862;2023-04-03T15:39:22;3.13;;;1.90;;
10550;SDS011;5324;50.684;3.862;2023-04-03T15:41:49;2.03;;;1.40;;
10550;SDS011;5324;50.684;3.862;2023-04-03T15:44:17;2.57;;;2.00;;
10550;SDS011;5324;50.684;3.862;2023-04-03T15:46:43;2.03;;;1.80;;
10550;SDS011;5324;50.684;3.862;2023-04-03T15:49:10;1.70;;;1.57;;
10550;SDS011;5324;50.684;3.862;2023-04-03T15:51:36;3.17;;;1.60;;
10550;SDS011;5324;50.684;3.862;2023-04-03T15:54:02;3.20;;;1.63;;
10550;SDS011;5324;50.684;3.862;2023-04-03T15:56:28;2.67;;;1.60;;
10550;SDS011;5324;50.684;3.862;2023-04-03T15:58:54;1.87;;;1.50;;
10550;SDS011;5324;50.684;3.862;2023-04-03T16:01:20;1.93;;;1.70;;
10550;SDS011;5324;50.684;3.862;2023-04-03T16:03:46;2.93;;;1.90;;
10550;SDS011;5324;50.684;3.862;2023-04-03T16:06:12;3.17;;;1.80;;
10550;SDS011;5324;50.684;3.862;2023-04-03T16:08:39;4.40;;;2.13;;
10550;SDS011;5324;50.684;3.862;2023-04-03T16:11:05;2.23;;;1.87;;
10550;SDS011;5324;50.684;3.862;2023-04-03T16:13:31;6.17;;;1.73;;
10550;SDS011;5324;50.684;3.862;2023-04-03T16:15:58;2.63;;;1.93;;
10550;SDS011;5324;50.684;3.862;2023-04-03T16:18:25;3.70;;;1.90;;
10550;SDS011;5324;50.684;3.862;2023-04-03T16:20:51;2.27;;;1.80;;
10550;SDS011;5324;50.684;3.862;2023-04-03T16:23:17;4.10;;;1.87;;
10550;SDS011;5324;50.684;3.862;2023-04-03T16:25:43;2.80;;;2.20;;
10550;SDS011;5324;50.684;3.862;2023-04-03T16:28:12;1.83;;;1.40;;
10550;SDS011;5324;50.684;3.862;2023-04-03T16:30:41;2.37;;;1.97;;
10550;SDS011;5324;50.684;3.862;2023-04-03T16:33:08;1.93;;;1.33;;
10550;SDS011;5324;50.684;3.862;2023-04-03T16:35:34;2.60;;;1.70;;
10550;SDS011;5324;50.684;3.862;2023-04-03T16:38:00;2.43;;;1.60;;
10550;SDS011;5324;50.684;3.862;2023-04-03T16:40:26;2.53;;;1.83;;
10550;SDS011;5324;50.684;3.862;2023-04-03T16:42:52;1.90;;;1.50;;
10550;SDS011;5324;50.684;3.862;2023-04-03T16:45:20;1.50;;;1.40;;